sensor_id;sensor_type;location;lat;lon;timestamp;pressure;altitude;pressure_sealevel;temperature;humidity
51829;BME280;37881;48.024;8.774;2023-05-24T00:00:21;94078.19;;;12.24;100.00
51829;BME280;37881;48.024;8.774;2023-05-24T00:02:48;94069.22;;;12.19;100.00
51829;BME280;37881;48.024;8.774;2023-05-24T00:05:15;94075.88;;;11.98;100.00
51829;BME280;37881;48.024;8.774;2023-05-24T00:07:42;94078.31;;;12.16;100.00
51829;BME280;37881;48.024;8.774;2023-05-24T00:10:09;94074.63;;;12.23;100.00
51829;BME280;37881;48.024;8.774;2023-05-24T00:12:36;94075.91;;;12.18;100.00
51829;BME280;37881;48.024;8.774;2023-05-24T00:15:03;94075.41;;;12.04;100.00
51829;BME280;37881;48.024;8.774;2023-05-24T00:17:30;94072.81;;;12.16;100.00
51829;BME280;37881;48.024;8.774;2023-05-24T00:19:57;94069.28;;;12.16;100.00
51829;BME280;37881;48.024;8.774;2023-05-24T00:22:25;94068.56;;;12.12;100.00
51829;BME280;37881;48.024;8.774;2023-05-24T00:24:51;94067.97;;;12.01;100.00
51829;BME280;37881;48.024;8.774;2023-05-24T00:27:18;94065.06;;;12.11;100.00
51829;BME280;37881;48.024;8.774;2023-05-24T00:29:45;94072.13;;;11.89;100.00
51829;BME280;37881;48.024;8.774;2023-05-24T00:32:12;94066.50;;;11.96;100.00
51829;BME280;37881;48.024;8.774;2023-05-24T00:34:39;94071.16;;;11.99;100.00
51829;BME280;37881;48.024;8.774;2023-05-24T00:37:05;94060.59;;;11.97;100.00
51829;BME280;37881;48.024;8.774;2023-05-24T00:39:33;94062.78;;;11.83;100.00
51829;BME280;37881;48.024;8.774;2023-05-24T00:42:01;94063.56;;;11.83;100.00
51829;BME280;37881;48.024;8.774;2023-05-24T00:44:29;94065.81;;;12.12;100.00
51829;BME280;37881;48.024;8.774;2023-05-24T00:46:56;94059.69;;;12.24;100.00
51829;BME280;37881;48.024;8.774;2023-05-24T00:49:23;94059.28;;;12.26;100.00
51829;BME280;37881;48.024;8.774;2023-05-24T00:51:50;94053.47;;;12.00;100.00
51829;BME280;37881;48.024;8.774;2023-05-24T00:54:19;94049.50;;;12.01;100.00
51829;BME280;37881;48.024;8.774;2023-05-24T00:56:47;94057.41;;;11.99;100.00
51829;BME280;37881;48.024;8.774;2023-05-24T00:59:14;94056.22;;;12.00;100.00
51829;BME280;37881;48.024;8.774;2023-05-24T01:01:40;94057.94;;;12.14;100.00
51829;BME280;37881;48.024;8.774;2023-05-24T01:04:08;94058.34;;;12.12;100.00
51829;BME280;37881;48.024;8.774;2023-05-24T01:06:41;94053.59;;;11.93;100.00
51829;BME280;37881;48.024;8.774;2023-05-24T01:09:48;94053.69;;;11.86;100.00
51829;BME280;37881;48.024;8.774;2023-05-24T01:12:32;94047.66;;;11.94;100.00
51829;BME280;37881;48.024;8.774;2023-05-24T01:18:01;94055.81;;;12.02;100.00
51829;BME280;37881;48.024;8.774;2023-05-24T01:20:32;94055.09;;;11.97;100.00
51829;BME280;37881;48.024;8.774;2023-05-24T01:23:06;94051.31;;;11.88;100.00
51829;BME280;37881;48.024;8.774;2023-05-24T01:28:12;94045.75;;;11.68;100.00
51829;BME280;37881;48.024;8.774;2023-05-24T01:30:40;94040.06;;;11.78;100.00
51829;BME280;37881;48.024;8.774;2023-05-24T01:33:08;94039.56;;;11.64;100.00
51829;BME280;37881;48.024;8.774;2023-05-24T01:35:35;94034.81;;;11.64;100.00
51829;BME280;37881;48.024;8.774;2023-05-24T01:38:06;94031.31;;;11.64;100.00
51829;BME280;37881;48.024;8.774;2023-05-24T01:40:33;94041.34;;;11.74;100.00
51829;BME280;37881;48.024;8.774;2023-05-24T01:45:38;94039.59;;;11.60;100.00
51829;BME280;37881;48.024;8.774;2023-05-24T01:50:37;94032.84;;;11.65;100.00
51829;BME280;37881;48.024;8.774;2023-05-24T01:53:11;94032.03;;;11.68;100.00
51829;BME280;37881;48.024;8.774;2023-05-24T01:55:39;94029.56;;;11.73;100.00
51829;BME280;37881;48.024;8.774;2023-05-24T01:58:08;94040.84;;;11.79;100.00
51829;BME280;37881;48.024;8.774;2023-05-24T02:00:35;94033.38;;;11.79;100.00
51829;BME280;37881;48.024;8.774;2023-05-24T02:03:05;94033.69;;;11.85;100.00
51829;BME280;37881;48.024;8.774;2023-05-24T02:05:32;94036.13;;;11.79;100.00
51829;BME280;37881;48.024;8.774;2023-05-24T02:07:59;94039.41;;;11.71;100.00
51829;BME280;37881;48.024;8.774;2023-05-24T02:10:26;94035.06;;;11.73;100.00
51829;BME280;37881;48.024;8.774;2023-05-24T02:12:53;94033.97;;;11.91;100.00
51829;BME280;37881;48.024;8.774;2023-05-24T02:15:19;94025.31;;;11.92;100.00
51829;BME280;37881;48.024;8.774;2023-05-24T02:17:47;94029.72;;;11.86;100.00
51829;BME280;37881;48.024;8.774;2023-05-24T02:20:14;94029.97;;;11.95;100.00
51829;BME280;37881;48.024;8.774;2023-05-24T02:22:42;94032.78;;;11.68;100.00
51829;BME280;37881;48.024;8.774;2023-05-24T02:25:09;94035.53;;;11.68;100.00
51829;BME280;37881;48.024;8.774;2023-05-24T02:27:36;94029.41;;;11.80;100.00
51829;BME280;37881;48.024;8.774;2023-05-24T02:30:03;94036.97;;;11.76;100.00
51829;BME280;37881;48.024;8.774;2023-05-24T02:32:31;94034.81;;;11.64;100.00
51829;BME280;37881;48.024;8.774;2023-05-24T02:34:58;94030.69;;;11.52;100.00
51829;BME280;37881;48.024;8.774;2023-05-24T02:37:27;94024.03;;;11.53;100.00
51829;BME280;37881;48.024;8.774;2023-05-24T02:39:54;94026.66;;;11.37;100.00
51829;BME280;37881;48.024;8.774;2023-05-24T02:42:20;94030.28;;;11.30;100.00
51829;BME280;37881;48.024;8.774;2023-05-24T02:44:47;94022.28;;;11.39;100.00
51829;BME280;37881;48.024;8.774;2023-05-24T02:47:15;94014.59;;;11.31;100.00
51829;BME280;37881;48.024;8.774;2023-05-24T02:49:41;94021.97;;;11.34;100.00
51829;BME280;37881;48.024;8.774;2023-05-24T02:52:08;94024.06;;;11.26;100.00
51829;BME280;37881;48.024;8.774;2023-05-24T02:54:35;94019.06;;;10.94;100.00
51829;BME280;37881;48.024;8.774;2023-05-24T02:57:02;94019.03;;;10.97;100.00
51829;BME280;37881;48.024;8.774;2023-05-24T02:59:29;94016.81;;;11.12;100.00
51829;BME280;37881;48.024;8.774;2023-05-24T03:01:56;94012.81;;;10.93;100.00
51829;BME280;37881;48.024;8.774;2023-05-24T03:04:23;94009.63;;;11.22;100.00
51829;BME280;37881;48.024;8.774;2023-05-24T03:06:50;94009.03;;;11.11;100.00
51829;BME280;37881;48.024;8.774;2023-05-24T03:09:19;94019.44;;;10.96;100.00
51829;BME280;37881;48.024;8.774;2023-05-24T03:11:45;94015.91;;;10.95;100.00
51829;BME280;37881;48.024;8.774;2023-05-24T03:14:12;94014.25;;;10.74;100.00
51829;BME280;37881;48.024;8.774;2023-05-24T03:16:39;94014.16;;;10.82;100.00
51829;BME280;37881;48.024;8.774;2023-05-24T03:19:06;94017.34;;;10.76;100.00
51829;BME280;37881;48.024;8.774;2023-05-24T03:21:35;94010.03;;;10.97;100.00
51829;BME280;37881;48.024;8.774;2023-05-24T03:24:02;94009.72;;;10.91;100.00
51829;BME280;37881;48.024;8.774;2023-05-24T03:26:29;94013.28;;;10.88;100.00
51829;BME280;37881;48.024;8.774;2023-05-24T03:28:55;94015.19;;;10.91;100.00
51829;BME280;37881;48.024;8.774;2023-05-24T03:31:22;94013.19;;;10.95;100.00
51829;BME280;37881;48.024;8.774;2023-05-24T03:33:52;94012.75;;;10.97;100.00
51829;BME280;37881;48.024;8.774;2023-05-24T03:36:18;94025.06;;;11.12;100.00
51829;BME280;37881;48.024;8.774;2023-05-24T03:38:46;94015.66;;;11.13;100.00
51829;BME280;37881;48.024;8.774;2023-05-24T03:41:13;94011.50;;;11.02;100.00
51829;BME280;37881;48.024;8.774;2023-05-24T03:43:39;94024.53;;;10.97;100.00
51829;BME280;37881;48.024;8.774;2023-05-24T03:46:06;94022.59;;;10.94;100.00
51829;BME280;37881;48.024;8.774;2023-05-24T03:48:33;94018.72;;;10.92;100.00
51829;BME280;37881;48.024;8.774;2023-05-24T03:51:00;94024.47;;;11.01;100.00
51829;BME280;37881;48.024;8.774;2023-05-24T03:53:27;94033.56;;;10.94;100.00
51829;BME280;37881;48.024;8.774;2023-05-24T03:55:54;94024.47;;;11.01;100.00
51829;BME280;37881;48.024;8.774;2023-05-24T03:58:20;94032.19;;;11.10;100.00
51829;BME280;37881;48.024;8.774;2023-05-24T04:00:47;94030.91;;;11.14;100.00
51829;BME280;37881;48.024;8.774;2023-05-24T04:03:14;94033.47;;;11.02;100.00
51829;BME280;37881;48.024;8.774;2023-05-24T04:05:41;94025.16;;;11.09;100.00
51829;BME280;37881;48.024;8.774;2023-05-24T04:08:08;94027.94;;;11.05;100.00
51829;BME280;37881;48.024;8.774;2023-05-24T04:10:34;94035.34;;;11.08;100.00
51829;BME280;37881;48.024;8.774;2023-05-24T04:13:01;94041.03;;;10.94;100.00
51829;BME280;37881;48.024;8.774;2023-05-24T04:15:28;94033.53;;;10.98;100.00
51829;BME280;37881;48.024;8.774;2023-05-24T04:17:55;94031.50;;;11.02;100.00
51829;BME280;37881;48.024;8.774;2023-05-24T04:20:22;94041.25;;;10.79;100.00
51829;BME280;37881;48.024;8.774;2023-05-24T04:22:53;94038.41;;;10.87;100.00
51829;BME280;37881;48.024;8.774;2023-05-24T04:25:21;94043.28;;;10.75;100.00
51829;BME280;37881;48.024;8.774;2023-05-24T04:27:48;94042.66;;;10.91;100.00
51829;BME280;37881;48.024;8.774;2023-05-24T04:30:16;94038.69;;;10.92;100.00
51829;BME280;37881;48.024;8.774;2023-05-24T04:32:43;94036.91;;;10.82;100.00
51829;BME280;37881;48.024;8.774;2023-05-24T04:35:13;94037.47;;;10.70;100.00
51829;BME280;37881;48.024;8.774;2023-05-24T04:37:39;94043.63;;;10.77;100.00
51829;BME280;37881;48.024;8.774;2023-05-24T04:40:07;94040.84;;;10.81;100.00
51829;BME280;37881;48.024;8.774;2023-05-24T04:42:34;94043.78;;;10.67;100.00
51829;BME280;37881;48.024;8.774;2023-05-24T04:45:01;94048.25;;;10.84;100.00
51829;BME280;37881;48.024;8.774;2023-05-24T04:47:28;94045.44;;;10.26;100.00
51829;BME280;37881;48.024;8.774;2023-05-24T04:49:55;94052.50;;;10.58;100.00
51829;BME280;37881;48.024;8.774;2023-05-24T04:52:22;94049.28;;;10.67;100.00
51829;BME280;37881;48.024;8.774;2023-05-24T04:54:48;94055.06;;;10.72;100.00
51829;BME280;37881;48.024;8.774;2023-05-24T04:57:16;94056.50;;;10.53;100.00
51829;BME280;37881;48.024;8.774;2023-05-24T04:59:43;94049.28;;;10.67;100.00
51829;BME280;37881;48.024;8.774;2023-05-24T05:02:10;94058.28;;;10.67;100.00
51829;BME280;37881;48.024;8.774;2023-05-24T05:04:37;94054.97;;;10.79;100.00
51829;BME280;37881;48.024;8.774;2023-05-24T05:07:03;94059.47;;;10.66;100.00
51829;BME280;37881;48.024;8.774;2023-05-24T05:09:30;94056.94;;;10.79;100.00
51829;BME280;37881;48.024;8.774;2023-05-24T05:11:57;94049.47;;;10.52;100.00
51829;BME280;37881;48.024;8.774;2023-05-24T05:14:24;94045.84;;;10.59;100.00
51829;BME280;37881;48.024;8.774;2023-05-24T05:16:51;94043.78;;;10.94;100.00
51829;BME280;37881;48.024;8.774;2023-05-24T05:19:17;94041.31;;;11.03;100.00
51829;BME280;37881;48.024;8.774;2023-05-24T05:21:44;94048.34;;;11.04;100.00
51829;BME280;37881;48.024;8.774;2023-05-24T05:24:11;94058.19;;;11.02;100.00
51829;BME280;37881;48.024;8.774;2023-05-24T05:26:38;94048.19;;;10.61;100.00
51829;BME280;37881;48.024;8.774;2023-05-24T05:29:04;94040.13;;;10.77;100.00
51829;BME280;37881;48.024;8.774;2023-05-24T05:31:31;94041.25;;;11.07;100.00
51829;BME280;37881;48.024;8.774;2023-05-24T05:33:58;94044.50;;;11.25;100.00
51829;BME280;37881;48.024;8.774;2023-05-24T05:36:25;94040.31;;;11.17;100.00
51829;BME280;37881;48.024;8.774;2023-05-24T05:38:51;94027.78;;;11.39;100.00
51829;BME280;37881;48.024;8.774;2023-05-24T05:41:20;94030.22;;;11.34;100.00
51829;BME280;37881;48.024;8.774;2023-05-24T05:43:47;94027.44;;;11.37;100.00
51829;BME280;37881;48.024;8.774;2023-05-24T05:46:14;94039.00;;;11.49;100.00
51829;BME280;37881;48.024;8.774;2023-05-24T05:48:41;94032.44;;;11.66;100.00
51829;BME280;37881;48.024;8.774;2023-05-24T05:51:12;94039.25;;;11.82;100.00
51829;BME280;37881;48.024;8.774;2023-05-24T05:53:38;94037.94;;;11.90;100.00
51829;BME280;37881;48.024;8.774;2023-05-24T05:56:05;94038.09;;;11.79;100.00
51829;BME280;37881;48.024;8.774;2023-05-24T05:58:32;94034.41;;;11.66;100.00
51829;BME280;37881;48.024;8.774;2023-05-24T06:00:59;94041.75;;;11.49;100.00
51829;BME280;37881;48.024;8.774;2023-05-24T06:03:26;94046.44;;;11.52;100.00
51829;BME280;37881;48.024;8.774;2023-05-24T06:05:53;94052.19;;;11.81;100.00
51829;BME280;37881;48.024;8.774;2023-05-24T06:08:20;94046.69;;;11.81;100.00
51829;BME280;37881;48.024;8.774;2023-05-24T06:10:47;94053.28;;;11.64;100.00
51829;BME280;37881;48.024;8.774;2023-05-24T06:13:16;94049.59;;;11.74;100.00
51829;BME280;37881;48.024;8.774;2023-05-24T06:15:42;94051.47;;;11.77;100.00
51829;BME280;37881;48.024;8.774;2023-05-24T06:18:09;94051.72;;;11.86;100.00
51829;BME280;37881;48.024;8.774;2023-05-24T06:20:36;94048.09;;;11.93;100.00
51829;BME280;37881;48.024;8.774;2023-05-24T06:23:03;94052.59;;;12.03;100.00
51829;BME280;37881;48.024;8.774;2023-05-24T06:25:30;94053.16;;;11.71;100.00
51829;BME280;37881;48.024;8.774;2023-05-24T06:27:58;94050.50;;;12.11;100.00
51829;BME280;37881;48.024;8.774;2023-05-24T06:30:25;94056.44;;;11.86;100.00
51829;BME280;37881;48.024;8.774;2023-05-24T06:32:52;94057.13;;;11.93;100.00
51829;BME280;37881;48.024;8.774;2023-05-24T06:35:18;94057.88;;;12.17;100.00
51829;BME280;37881;48.024;8.774;2023-05-24T06:37:45;94053.81;;;12.62;100.00
51829;BME280;37881;48.024;8.774;2023-05-24T06:40:12;94060.59;;;12.57;100.00
51829;BME280;37881;48.024;8.774;2023-05-24T06:42:39;94052.69;;;12.59;100.00
51829;BME280;37881;48.024;8.774;2023-05-24T06:45:06;94058.28;;;12.36;100.00
51829;BME280;37881;48.024;8.774;2023-05-24T06:47:34;94059.16;;;12.69;100.00
51829;BME280;37881;48.024;8.774;2023-05-24T06:50:02;94063.03;;;12.92;100.00
51829;BME280;37881;48.024;8.774;2023-05-24T06:52:29;94063.47;;;12.90;100.00
51829;BME280;37881;48.024;8.774;2023-05-24T06:54:56;94064.44;;;13.00;100.00
51829;BME280;37881;48.024;8.774;2023-05-24T06:57:23;94063.66;;;12.79;100.00
51829;BME280;37881;48.024;8.774;2023-05-24T06:59:50;94061.84;;;12.73;100.00
51829;BME280;37881;48.024;8.774;2023-05-24T07:02:17;94061.75;;;12.96;100.00
51829;BME280;37881;48.024;8.774;2023-05-24T07:04:44;94064.03;;;13.18;100.00
51829;BME280;37881;48.024;8.774;2023-05-24T07:07:11;94064.97;;;13.28;100.00
51829;BME280;37881;48.024;8.774;2023-05-24T07:09:39;94074.75;;;12.96;100.00
51829;BME280;37881;48.024;8.774;2023-05-24T07:12:07;94075.84;;;12.62;100.00
51829;BME280;37881;48.024;8.774;2023-05-24T07:14:34;94074.16;;;12.68;100.00
51829;BME280;37881;48.024;8.774;2023-05-24T07:17:01;94081.44;;;12.58;100.00
51829;BME280;37881;48.024;8.774;2023-05-24T07:19:28;94085.81;;;13.12;100.00
51829;BME280;37881;48.024;8.774;2023-05-24T07:21:55;94086.28;;;13.44;100.00
51829;BME280;37881;48.024;8.774;2023-05-24T07:24:22;94084.66;;;13.46;100.00
51829;BME280;37881;48.024;8.774;2023-05-24T07:26:50;94083.97;;;13.42;100.00
51829;BME280;37881;48.024;8.774;2023-05-24T07:29:19;94087.88;;;13.25;100.00
51829;BME280;37881;48.024;8.774;2023-05-24T07:31:47;94091.41;;;13.25;100.00
51829;BME280;37881;48.024;8.774;2023-05-24T07:34:14;94094.22;;;13.42;100.00
51829;BME280;37881;48.024;8.774;2023-05-24T07:36:41;94088.88;;;13.51;100.00
51829;BME280;37881;48.024;8.774;2023-05-24T07:39:08;94094.22;;;13.58;100.00
51829;BME280;37881;48.024;8.774;2023-05-24T07:41:35;94100.88;;;13.61;100.00
51829;BME280;37881;48.024;8.774;2023-05-24T07:44:02;94093.88;;;13.56;100.00
51829;BME280;37881;48.024;8.774;2023-05-24T07:46:29;94094.13;;;13.62;100.00
51829;BME280;37881;48.024;8.774;2023-05-24T07:48:56;94096.06;;;13.28;100.00
51829;BME280;37881;48.024;8.774;2023-05-24T07:51:23;94089.25;;;13.16;100.00
51829;BME280;37881;48.024;8.774;2023-05-24T07:53:50;94098.78;;;13.12;100.00
51829;BME280;37881;48.024;8.774;2023-05-24T07:56:16;94100.16;;;13.04;100.00
51829;BME280;37881;48.024;8.774;2023-05-24T07:58:43;94100.41;;;13.09;100.00
51829;BME280;37881;48.024;8.774;2023-05-24T08:01:13;94097.31;;;13.60;100.00
51829;BME280;37881;48.024;8.774;2023-05-24T08:03:39;94101.34;;;13.03;100.00
51829;BME280;37881;48.024;8.774;2023-05-24T08:06:06;94098.28;;;13.53;100.00
51829;BME280;37881;48.024;8.774;2023-05-24T08:08:33;94101.22;;;13.46;100.00
51829;BME280;37881;48.024;8.774;2023-05-24T08:11:01;94111.91;;;12.88;100.00
51829;BME280;37881;48.024;8.774;2023-05-24T08:13:27;94110.50;;;12.39;100.00
51829;BME280;37881;48.024;8.774;2023-05-24T08:15:54;94103.66;;;12.28;100.00
51829;BME280;37881;48.024;8.774;2023-05-24T08:18:21;94090.47;;;12.95;100.00
51829;BME280;37881;48.024;8.774;2023-05-24T08:20:48;94098.69;;;13.35;100.00
51829;BME280;37881;48.024;8.774;2023-05-24T08:23:14;94095.00;;;13.91;100.00
51829;BME280;37881;48.024;8.774;2023-05-24T08:25:41;94105.66;;;14.06;100.00
51829;BME280;37881;48.024;8.774;2023-05-24T08:28:08;94105.38;;;14.33;100.00
51829;BME280;37881;48.024;8.774;2023-05-24T08:30:36;94096.47;;;14.71;100.00
51829;BME280;37881;48.024;8.774;2023-05-24T08:33:03;94107.47;;;14.58;100.00
51829;BME280;37881;48.024;8.774;2023-05-24T08:35:30;94105.41;;;13.84;100.00
51829;BME280;37881;48.024;8.774;2023-05-24T08:37:57;94110.06;;;14.03;100.00
51829;BME280;37881;48.024;8.774;2023-05-24T08:40:23;94107.47;;;14.58;100.00
51829;BME280;37881;48.024;8.774;2023-05-24T08:42:51;94103.84;;;14.61;100.00
51829;BME280;37881;48.024;8.774;2023-05-24T08:45:20;94096.63;;;14.34;100.00
51829;BME280;37881;48.024;8.774;2023-05-24T08:47:48;94113.44;;;14.11;100.00
51829;BME280;37881;48.024;8.774;2023-05-24T08:50:16;94107.16;;;13.61;100.00
51829;BME280;37881;48.024;8.774;2023-05-24T08:52:44;94106.75;;;14.25;100.00
51829;BME280;37881;48.024;8.774;2023-05-24T08:55:12;94096.91;;;14.24;100.00
51829;BME280;37881;48.024;8.774;2023-05-24T08:57:39;94097.34;;;14.22;100.00
51829;BME280;37881;48.024;8.774;2023-05-24T09:00:08;94096.91;;;13.62;100.00
51829;BME280;37881;48.024;8.774;2023-05-24T09:02:38;94096.31;;;14.16;100.00
51829;BME280;37881;48.024;8.774;2023-05-24T09:05:09;94099.28;;;14.09;100.00
51829;BME280;37881;48.024;8.774;2023-05-24T09:07:36;94095.56;;;14.15;100.00
51829;BME280;37881;48.024;8.774;2023-05-24T09:10:04;94095.59;;;14.28;100.00
51829;BME280;37881;48.024;8.774;2023-05-24T09:12:33;94096.59;;;14.93;100.00
51829;BME280;37881;48.024;8.774;2023-05-24T09:15:05;94102.94;;;14.35;100.00
51829;BME280;37881;48.024;8.774;2023-05-24T09:17:36;94103.19;;;14.70;100.00
51829;BME280;37881;48.024;8.774;2023-05-24T09:20:05;94109.03;;;15.01;100.00
51829;BME280;37881;48.024;8.774;2023-05-24T09:22:36;94108.22;;;14.88;99.65
51829;BME280;37881;48.024;8.774;2023-05-24T09:25:08;94097.25;;;14.71;99.06
51829;BME280;37881;48.024;8.774;2023-05-24T09:27:35;94108.88;;;14.79;100.00
51829;BME280;37881;48.024;8.774;2023-05-24T09:30:07;94112.22;;;15.00;99.50
51829;BME280;37881;48.024;8.774;2023-05-24T09:32:34;94112.91;;;15.04;98.75
51829;BME280;37881;48.024;8.774;2023-05-24T09:35:01;94118.91;;;14.73;99.40
51829;BME280;37881;48.024;8.774;2023-05-24T09:37:28;94113.91;;;14.68;100.00
51829;BME280;37881;48.024;8.774;2023-05-24T09:39:58;94112.84;;;14.78;99.35
51829;BME280;37881;48.024;8.774;2023-05-24T09:42:26;94119.06;;;14.36;100.00
51829;BME280;37881;48.024;8.774;2023-05-24T09:45:01;94114.50;;;14.30;100.00
51829;BME280;37881;48.024;8.774;2023-05-24T09:47:29;94123.97;;;13.50;100.00
51829;BME280;37881;48.024;8.774;2023-05-24T09:49:56;94128.56;;;12.81;100.00
51829;BME280;37881;48.024;8.774;2023-05-24T09:52:23;94126.81;;;12.90;100.00
51829;BME280;37881;48.024;8.774;2023-05-24T09:54:50;94125.81;;;12.61;100.00
51829;BME280;37881;48.024;8.774;2023-05-24T09:57:17;94129.41;;;12.77;100.00
51829;BME280;37881;48.024;8.774;2023-05-24T09:59:44;94123.63;;;12.92;100.00
51829;BME280;37881;48.024;8.774;2023-05-24T10:02:12;94120.47;;;13.30;100.00
51829;BME280;37881;48.024;8.774;2023-05-24T10:04:38;94130.66;;;13.33;100.00
51829;BME280;37881;48.024;8.774;2023-05-24T10:07:06;94132.09;;;13.37;100.00
51829;BME280;37881;48.024;8.774;2023-05-24T10:09:34;94137.13;;;13.43;100.00
51829;BME280;37881;48.024;8.774;2023-05-24T10:12:06;94136.19;;;13.66;100.00
51829;BME280;37881;48.024;8.774;2023-05-24T10:14:35;94139.47;;;13.77;100.00
51829;BME280;37881;48.024;8.774;2023-05-24T10:17:03;94144.81;;;13.68;100.00
51829;BME280;37881;48.024;8.774;2023-05-24T10:19:35;94140.50;;;13.83;100.00
51829;BME280;37881;48.024;8.774;2023-05-24T10:22:05;94138.84;;;13.36;100.00
51829;BME280;37881;48.024;8.774;2023-05-24T10:24:38;94136.56;;;13.31;100.00
51829;BME280;37881;48.024;8.774;2023-05-24T10:27:11;94136.53;;;13.84;98.69
51829;BME280;37881;48.024;8.774;2023-05-24T10:29:53;94133.81;;;13.31;100.00
51829;BME280;37881;48.024;8.774;2023-05-24T10:32:25;94138.16;;;13.98;97.21
51829;BME280;37881;48.024;8.774;2023-05-24T10:34:58;94139.63;;;13.53;100.00
51829;BME280;37881;48.024;8.774;2023-05-24T10:37:25;94137.50;;;13.25;100.00
51829;BME280;37881;48.024;8.774;2023-05-24T10:39:52;94134.72;;;13.45;100.00
51829;BME280;37881;48.024;8.774;2023-05-24T10:42:19;94128.59;;;13.37;100.00
51829;BME280;37881;48.024;8.774;2023-05-24T10:44:46;94131.03;;;13.68;97.55
51829;BME280;37881;48.024;8.774;2023-05-24T10:47:13;94139.63;;;13.70;98.84
51829;BME280;37881;48.024;8.774;2023-05-24T10:49:50;94143.34;;;12.90;100.00
51829;BME280;37881;48.024;8.774;2023-05-24T10:52:18;94142.56;;;14.12;97.82
51829;BME280;37881;48.024;8.774;2023-05-24T10:55:06;94136.88;;;13.70;98.77
51829;BME280;37881;48.024;8.774;2023-05-24T10:57:37;94142.31;;;13.73;98.00
51829;BME280;37881;48.024;8.774;2023-05-24T11:02:58;94142.38;;;14.65;93.11
51829;BME280;37881;48.024;8.774;2023-05-24T11:08:12;94141.81;;;14.41;93.67
51829;BME280;37881;48.024;8.774;2023-05-24T11:10:39;94147.22;;;13.66;97.55
51829;BME280;37881;48.024;8.774;2023-05-24T11:13:09;94149.78;;;14.22;92.63
51829;BME280;37881;48.024;8.774;2023-05-24T11:15:36;94145.56;;;14.34;91.87
51829;BME280;37881;48.024;8.774;2023-05-24T11:20:43;94147.38;;;14.99;88.78
51829;BME280;37881;48.024;8.774;2023-05-24T11:23:14;94148.75;;;15.20;86.49
51829;BME280;37881;48.024;8.774;2023-05-24T11:25:42;94143.47;;;14.84;90.00
51829;BME280;37881;48.024;8.774;2023-05-24T11:28:09;94147.31;;;15.15;88.41
51829;BME280;37881;48.024;8.774;2023-05-24T11:30:44;94157.53;;;14.89;88.27
51829;BME280;37881;48.024;8.774;2023-05-24T11:33:17;94154.13;;;15.11;87.59
51829;BME280;37881;48.024;8.774;2023-05-24T11:35:45;94152.56;;;14.06;92.08
51829;BME280;37881;48.024;8.774;2023-05-24T11:38:13;94141.97;;;13.55;96.71
51829;BME280;37881;48.024;8.774;2023-05-24T11:40:42;94146.38;;;13.52;97.59
51829;BME280;37881;48.024;8.774;2023-05-24T11:43:15;94152.50;;;14.55;92.40
51829;BME280;37881;48.024;8.774;2023-05-24T11:45:44;94142.69;;;14.37;92.79
51829;BME280;37881;48.024;8.774;2023-05-24T11:48:11;94141.19;;;14.66;90.18
51829;BME280;37881;48.024;8.774;2023-05-24T11:50:43;94136.94;;;14.90;88.69
51829;BME280;37881;48.024;8.774;2023-05-24T11:53:16;94142.88;;;15.18;85.92
51829;BME280;37881;48.024;8.774;2023-05-24T11:55:43;94128.91;;;14.96;85.62
51829;BME280;37881;48.024;8.774;2023-05-24T11:58:16;94134.38;;;14.54;86.71
51829;BME280;37881;48.024;8.774;2023-05-24T12:00:46;94134.03;;;14.52;85.86
51829;BME280;37881;48.024;8.774;2023-05-24T12:03:13;94126.41;;;14.72;85.31
51829;BME280;37881;48.024;8.774;2023-05-24T12:05:40;94116.91;;;15.54;81.71
51829;BME280;37881;48.024;8.774;2023-05-24T12:08:09;94116.16;;;15.79;79.33
51829;BME280;37881;48.024;8.774;2023-05-24T12:10:39;94115.34;;;15.53;80.76
51829;BME280;37881;48.024;8.774;2023-05-24T12:13:20;94110.72;;;15.50;81.21
51829;BME280;37881;48.024;8.774;2023-05-24T12:15:54;94108.56;;;16.05;77.58
51829;BME280;37881;48.024;8.774;2023-05-24T12:18:26;94108.16;;;15.81;79.48
51829;BME280;37881;48.024;8.774;2023-05-24T12:20:52;94102.75;;;15.52;79.00
51829;BME280;37881;48.024;8.774;2023-05-24T12:23:22;94095.31;;;15.87;78.41
51829;BME280;37881;48.024;8.774;2023-05-24T12:25:49;94092.00;;;15.67;80.08
51829;BME280;37881;48.024;8.774;2023-05-24T12:28:19;94096.44;;;15.38;82.58
51829;BME280;37881;48.024;8.774;2023-05-24T12:30:50;94108.59;;;15.15;83.35
51829;BME280;37881;48.024;8.774;2023-05-24T12:33:19;94108.03;;;15.08;83.16
51829;BME280;37881;48.024;8.774;2023-05-24T12:35:47;94099.22;;;14.71;86.68
51829;BME280;37881;48.024;8.774;2023-05-24T12:38:14;94108.19;;;14.75;88.08
51829;BME280;37881;48.024;8.774;2023-05-24T12:40:45;94107.84;;;14.73;87.26
51829;BME280;37881;48.024;8.774;2023-05-24T12:43:29;94108.22;;;14.29;93.60
51829;BME280;37881;48.024;8.774;2023-05-24T12:45:56;94103.06;;;14.15;93.05
51829;BME280;37881;48.024;8.774;2023-05-24T12:48:22;94106.38;;;13.77;94.70
51829;BME280;37881;48.024;8.774;2023-05-24T12:50:49;94099.72;;;14.07;94.38
51829;BME280;37881;48.024;8.774;2023-05-24T12:53:16;94097.81;;;14.21;93.13
51829;BME280;37881;48.024;8.774;2023-05-24T12:55:45;94098.84;;;14.10;95.44
51829;BME280;37881;48.024;8.774;2023-05-24T12:58:12;94089.59;;;14.46;92.60
51829;BME280;37881;48.024;8.774;2023-05-24T13:00:41;94096.09;;;14.69;90.41
51829;BME280;37881;48.024;8.774;2023-05-24T13:03:10;94100.25;;;14.77;87.99
51829;BME280;37881;48.024;8.774;2023-05-24T13:05:38;94100.75;;;14.13;91.55
51829;BME280;37881;48.024;8.774;2023-05-24T13:08:04;94102.63;;;14.16;90.01
51829;BME280;37881;48.024;8.774;2023-05-24T13:10:31;94097.28;;;14.55;89.11
51829;BME280;37881;48.024;8.774;2023-05-24T13:12:58;94096.94;;;14.82;86.91
51829;BME280;37881;48.024;8.774;2023-05-24T13:15:25;94097.63;;;14.41;87.24